Terminal Aerodrome Forecast
Issued by NWS

Home | Current Version | Previous Version | Text Only | Print | Product List | Glossary On
Versions: 1 2 3 4 5 6 7 8 9
000
FTUS46 KMFR 271740
TAFLMT
TAF
KLMT 271740Z 2718/2818 VRB03KT P6SM SCT200
     FM272200 27005KT P6SM BKN080 BKN200
     FM280000 27008KT P6SM BKN050 OVC070
     FM280200 24008KT P6SM SCT025 BKN035 OVC050
     FM280500 24006KT 6SM -SHSN BR SCT015 BKN025 OVC040=

USA.gov is the U.S. government's official web portal to all federal, state and local government web resources and services.